Latest Weather Observations for Little Bay

IDN60801

Issued at 5:05 pm EST Monday 1 September 2014 (issued every 30 minutes, with the page automatically refreshed every 10 minutes)

About weather observations | Map of weather stations | Latest weather observations for NSW | Other Formats
Station Details ID: 066051 Name: LITTLE BAY (THE COAST GOLF CLUB) Lat: -33.98 Lon: 151.25 Height: 22.0 m
Data from the previous 72 hours. | See also: Recent months for locations in New South Wales
Date/Time
EST
Temp
°C
App
Temp
°C
Dew
Point
Rel
Hum
%
Delta-T
°C
Wind Press
QNH
hPa
Press
MSL
hPa
Rain
since 9 am
mm
Dir
 
Spd
km/h
Gust
km/h
Spd
kts
Gust
kts
01/05:00pm - - - - - N 13 19 7 10 - - -
01/04:30pm - - - - - NNE 19 24 10 13 - - -
01/04:00pm - - - - - NNE 15 22 8 12 - - -
01/03:30pm - - - - - NNE 19 24 10 13 - - -
01/03:00pm - - - - - NE 19 24 10 13 - - -
01/02:30pm - - - - - NNE 19 26 10 14 - - -
01/02:00pm - - - - - NNE 15 20 8 11 - - -
01/01:30pm - - - - - NNE 13 17 7 9 - - -
01/01:00pm - - - - - NE 11 13 6 7 - - -
01/12:30pm - - - - - NE 9 13 5 7 - - -
01/12:00pm - - - - - NNE 13 17 7 9 - - -
01/11:30am - - - - - NE 15 19 8 10 - - -
01/11:00am - - - - - NNE 9 13 5 7 - - -
01/10:30am - - - - - NNW 6 15 3 8 - - -
01/10:00am - - - - - WNW 7 13 4 7 - - -
01/09:30am - - - - - WNW 13 19 7 10 - - -
01/09:00am - - - - - WNW 13 20 7 11 - - -
01/08:30am - - - - - WNW 15 22 8 12 - - -
01/08:00am - - - - - W 15 22 8 12 - - -
01/07:30am - - - - - WNW 13 19 7 10 - - -
01/07:00am - - - - - WNW 9 15 5 8 - - -
01/06:30am - - - - - NW 9 15 5 8 - - -
01/06:00am - - - - - WNW 11 15 6 8 - - -
01/05:30am - - - - - NW 11 17 6 9 - - -
01/05:00am - - - - - NW 9 13 5 7 - - -
01/04:30am - - - - - WNW 11 15 6 8 - - -
01/04:00am - - - - - WNW 13 17 7 9 - - -
01/03:30am - - - - - WNW 11 15 6 8 - - -
01/03:00am - - - - - WNW 9 17 5 9 - - -
01/02:30am - - - - - WNW 9 13 5 7 - - -
01/02:00am - - - - - WNW 9 11 5 6 - - -
01/01:30am - - - - - WNW 9 11 5 6 - - -
01/01:00am - - - - - WNW 9 11 5 6 - - -
01/12:30am - - - - - WNW 9 11 5 6 - - -
01/12:00am - - - - - WNW 9 11 5 6 - - -
 
Date/Time
EST
Temp
°C
App
Temp
°C
Dew
Point
Rel
Hum
%
Delta-T
°C
Wind Press
QNH
hPa
Press
MSL
hPa
Rain
since 9 am
mm
Dir
 
Spd
km/h
Gust
km/h
Spd
kts
Gust
kts
31/11:30pm - - - - - WNW 7 11 4 6 - - -
31/11:00pm - - - - - W 9 11 5 6 - - -
31/10:30pm - - - - - W 9 13 5 7 - - -
31/10:00pm - - - - - CALM 0 0 0 0 - - -
31/09:30pm - - - - - CALM 0 0 0 0 - - -
31/09:00pm - - - - - CALM 0 0 0 0 - - -
31/08:30pm - - - - - CALM 0 0 0 0 - - -
31/08:00pm - - - - - ENE 6 7 3 4 - - -
31/07:30pm - - - - - ENE 7 9 4 5 - - -
31/07:00pm - - - - - E 9 11 5 6 - - -
31/06:30pm - - - - - E 9 11 5 6 - - -
31/06:00pm - - - - - E 9 13 5 7 - - -
31/05:30pm - - - - - ESE 9 13 5 7 - - -
31/05:00pm - - - - - ESE 11 13 6 7 - - -
31/04:30pm - - - - - SE 11 13 6 7 - - -
31/04:00pm - - - - - SE 11 15 6 8 - - -
31/03:30pm - - - - - SE 11 13 6 7 - - -
31/03:00pm - - - - - SE 11 15 6 8 - - -
31/02:30pm - - - - - SE 13 15 7 8 - - -
31/02:00pm - - - - - SSE 13 15 7 8 - - -
31/01:30pm - - - - - SE 13 15 7 8 - - -
31/01:00pm - - - - - SSE 13 15 7 8 - - -
31/12:30pm - - - - - SSE 13 17 7 9 - - -
31/12:00pm - - - - - S 17 20 9 11 - - -
31/11:30am - - - - - S 15 19 8 10 - - -
31/11:00am - - - - - S 15 19 8 10 - - -
31/10:30am - - - - - S 13 19 7 10 - - -
31/10:00am - - - - - W 9 15 5 8 - - -
31/09:30am - - - - - W 11 15 6 8 - - -
31/09:00am - - - - - W 11 15 6 8 - - -
31/08:30am - - - - - W 11 17 6 9 - - -
31/08:00am - - - - - W 11 17 6 9 - - -
31/07:30am - - - - - WSW 11 15 6 8 - - -
31/07:00am - - - - - W 13 17 7 9 - - -
31/06:30am - - - - - W 11 15 6 8 - - -
31/06:00am - - - - - W 13 17 7 9 - - -
31/05:30am - - - - - W 13 20 7 11 - - -
31/05:00am - - - - - W 9 15 5 8 - - -
31/04:30am - - - - - W 13 19 7 10 - - -
31/04:00am - - - - - W 13 19 7 10 - - -
31/03:30am - - - - - SW 15 22 8 12 - - -
31/03:00am - - - - - SSW 19 28 10 15 - - -
31/02:30am - - - - - SSW 19 28 10 15 - - -
31/02:00am - - - - - SSW 17 22 9 12 - - -
31/01:30am - - - - - SSW 20 30 11 16 - - -
31/01:00am - - - - - SSW 22 33 12 18 - - -
31/12:30am - - - - - SSW 19 28 10 15 - - -
31/12:00am - - - - - SW 22 32 12 17 - - -
 
Date/Time
EST
Temp
°C
App
Temp
°C
Dew
Point
Rel
Hum
%
Delta-T
°C
Wind Press
QNH
hPa
Press
MSL
hPa
Rain
since 9 am
mm
Dir
 
Spd
km/h
Gust
km/h
Spd
kts
Gust
kts
30/11:30pm - - - - - SW 20 33 11 18 - - -
30/11:00pm - - - - - SSW 22 35 12 19 - - -
30/10:30pm - - - - - SSW 20 30 11 16 - - -
30/10:00pm - - - - - SSW 26 35 14 19 - - -
30/09:30pm - - - - - SSW 26 37 14 20 - - -
30/09:00pm - - - - - SSW 24 37 13 20 - - -
30/08:30pm - - - - - SSW 26 37 14 20 - - -
30/08:00pm - - - - - SSW 24 35 13 19 - - -
30/07:30pm - - - - - SSW 26 37 14 20 - - -
30/07:00pm - - - - - SSW 26 37 14 20 - - -
30/06:30pm - - - - - SSW 24 41 13 22 - - -
30/06:00pm - - - - - SSW 26 41 14 22 - - -
30/05:30pm - - - - - SSW 30 41 16 22 - - -
30/05:18pm - - - - - SSW 30 50 16 27 - - -
30/05:00pm - - - - - SSW 24 41 13 22 - - -
30/04:30pm - - - - - SSW 24 39 13 21 - - -
30/04:00pm - - - - - SSW 30 43 16 23 - - -
30/03:30pm - - - - - SSW 30 43 16 23 - - -
30/03:00pm - - - - - SSW 28 39 15 21 - - -
30/02:30pm - - - - - SSW 24 33 13 18 - - -
30/02:00pm - - - - - SSW 28 43 15 23 - - -
30/01:36pm - - - - - SSW 28 46 15 25 - - -
30/01:30pm - - - - - SSW 28 41 15 22 - - -
30/01:00pm - - - - - SSW 28 43 15 23 - - -
30/12:30pm - - - - - SSW 28 41 15 22 - - -
30/12:00pm - - - - - SSW 26 44 14 24 - - -
30/11:30am - - - - - SSW 32 46 17 25 - - -
30/11:00am - - - - - SSW 33 44 18 24 - - -
30/10:50am - - - - - SSW 32 52 17 28 - - -
30/10:30am - - - - - SSW 37 50 20 27 - - -
30/10:00am - - - - - SSW 33 52 18 28 - - -
30/09:58am - - - - - SSW 33 52 18 28 - - -
30/09:30am - - - - - SSW 30 44 16 24 - - -
30/09:00am - - - - - SSW 28 37 15 20 - - -
30/08:30am - - - - - SSW 32 44 17 24 - - -
30/08:21am - - - - - SSW 30 48 16 26 - - -
30/08:00am - - - - - SSW 32 44 17 24 - - -
30/07:30am - - - - - SSW 33 52 18 28 - - -
30/07:26am - - - - - SSW 32 52 17 28 - - -
30/07:00am - - - - - SSW 32 46 17 25 - - -
30/06:40am - - - - - SSW 28 48 15 26 - - -
30/06:30am - - - - - SSW 35 46 19 25 - - -
30/06:00am - - - - - SSW 32 48 17 26 - - -
30/05:30am - - - - - SSW 35 54 19 29 - - -
30/05:00am - - - - - SSW 39 56 21 30 - - -
30/04:30am - - - - - SSW 33 50 18 27 - - -
30/04:01am - - - - - SSW 37 57 20 31 - - -
30/04:00am - - - - - SSW 37 54 20 29 - - -
30/03:30am - - - - - SSW 35 56 19 30 - - -
30/03:24am - - - - - SSW 35 56 19 30 - - -
30/03:00am - - - - - SSW 33 48 18 26 - - -
30/02:30am - - - - - SSW 35 50 19 27 - - -
30/02:00am - - - - - S 35 50 19 27 - - -
30/01:45am - - - - - SSW 35 54 19 29 - - -
30/01:30am - - - - - SSW 35 50 19 27 - - -
30/01:00am - - - - - S 41 54 22 29 - - -
30/12:30am - - - - - SSW 33 54 18 29 - - -
30/12:00am - - - - - SSW 33 54 18 29 - - -
 
Date/Time
EST
Temp
°C
App
Temp
°C
Dew
Point
Rel
Hum
%
Delta-T
°C
Wind Press
QNH
hPa
Press
MSL
hPa
Rain
since 9 am
mm
Dir
 
Spd
km/h
Gust
km/h
Spd
kts
Gust
kts
29/11:32pm - - - - - SSW 35 56 19 30 - - -
29/11:30pm - - - - - SSW 37 56 20 30 - - -
29/11:22pm - - - - - SSW 32 50 17 27 - - -
29/11:00pm - - - - - SSW 30 46 16 25 - - -
29/10:30pm - - - - - SSW 35 50 19 27 - - -
29/10:00pm - - - - - SSW 35 52 19 28 - - -
29/09:30pm - - - - - SSW 35 52 19 28 - - -
29/09:15pm - - - - - S 39 57 21 31 - - -
29/09:00pm - - - - - S 41 56 22 30 - - -
29/08:30pm - - - - - S 37 57 20 31 - - -
29/08:23pm - - - - - S 37 57 20 31 - - -
29/08:00pm - - - - - S 41 54 22 29 - - -
29/07:30pm - - - - - S 39 56 21 30 - - -
29/07:00pm - - - - - S 44 61 24 33 - - -
29/06:54pm - - - - - S 43 61 23 33 - - -
29/06:30pm - - - - - S 41 54 22 29 - - -
29/06:00pm - - - - - S 41 61 22 33 - - -
29/05:59pm - - - - - S 41 61 22 33 - - -
29/05:30pm - - - - - S 43 57 23 31 - - -
29/05:22pm - - - - - S 35 57 19 31 - - -

Other Formats:

Comma delimited format used in spreadsheet applications
http://www.bom.gov.au/fwo/IDN60801/IDN60801.94780.axf

JavaScript Object Notation format (JSON) in row-major order
http://www.bom.gov.au/fwo/IDN60801/IDN60801.94780.json